Crest Voyager — 3EBB8 — position and weather

sailwx.info

Track history (hours):
 
Tides and Currents Weather Stations Pressure Air Temp Water Temp Dewpoint Dewpoint Depression Visibility Wind Speed Wind Dir Waves Ship Positions

Crest Voyager

Last reported at 2017-Jun-24 04:59 UTC. Time now 2017-Jun-24 05:28 UTC.
Position N 01°23' E 103°12'.

Length 292 m; draft 9.7 m.

Type: Cargo ship. MMSI: 374835000.

Date/timePositionNaut miles runAvg speedWind from/ knotsBaromVisibWave heightAir tempDewpointWater temp
2017-Jun-24 04:59N 01°23' E 103°12'711.8
2017-Jun-24 04:21N 01°19' E 103°18'411.2
2017-Jun-24 03:58N 01°17' E 103°22'510.7
2017-Jun-24 03:30N 01°14' E 103°26'511.1
2017-Jun-24 03:00N 01°13' E 103°31'611.6
2017-Jun-24 02:30N 01°11' E 103°37'611.5
2017-Jun-24 02:00N 01°09' E 103°42'510.9
2017-Jun-24 01:30N 01°10' E 103°48'713.4
2017-Jun-24 01:01N 01°13' E 103°54'612.0
2017-Jun-24 00:30N 01°16' E 103°59'611.4
2017-Jun-24 00:00N 01°17' E 104°05'2 4.2
2017-Jun-23 23:29N 01°19' E 104°05'0 0.2
2017-Jun-23 22:49N 01°19' E 104°05'0 0.0
2017-Jun-23 22:19N 01°19' E 104°05'0 0.1
2017-Jun-23 21:58N 01°19' E 104°05'0 0.0
2017-Jun-23 21:04N 01°19' E 104°05'0 0.1
2017-Jun-23 20:46N 01°19' E 104°05'0 0.1
2017-Jun-23 20:10N 01°19' E 104°05'0 0.0
2017-Jun-23 19:52N 01°19' E 104°05'0 0.2
2017-Jun-23 19:22N 01°19' E 104°05'0 0.1
2017-Jun-23 18:58N 01°19' E 104°05'0 0.0
2017-Jun-23 18:25N 01°19' E 104°05'0 0.0
2017-Jun-23 17:55N 01°19' E 104°05'0 0.0
2017-Jun-23 17:25N 01°19' E 104°05'0 0.0
2017-Jun-23 16:52N 01°19' E 104°05'0 0.1
2017-Jun-23 16:28N 01°19' E 104°05'0 0.0
2017-Jun-23 15:55N 01°19' E 104°05'0 0.1
2017-Jun-23 15:25N 01°19' E 104°05'0 0.1
2017-Jun-23 14:46N 01°19' E 104°05'0 0.1
2017-Jun-23 13:55N 01°19' E 104°05'0 0.3
2017-Jun-23 13:25N 01°19' E 104°04'0 0.1
2017-Jun-23 12:49N 01°19' E 104°04'0 0.1
2017-Jun-23 11:55N 01°19' E 104°04'0 0.1
2017-Jun-23 11:25N 01°19' E 104°04'0 0.1
2017-Jun-23 10:55N 01°19' E 104°04'0 0.3
2017-Jun-23 10:28N 01°19' E 104°05'0 0.2
2017-Jun-23 09:58N 01°19' E 104°05'0 0.0
2017-Jun-23 09:28N 01°19' E 104°05'0 0.1
2017-Jun-23 08:58N 01°19' E 104°05'0 0.2
2017-Jun-23 08:16N 01°19' E 104°05'0 0.1
2017-Jun-23 07:46N 01°19' E 104°05'0 0.2
2017-Jun-23 07:29N 01°19' E 104°05'1 1.2
2017-Jun-23 07:00N 01°19' E 104°05'4 7.3
2017-Jun-23 06:26N 01°17' E 104°09'3 6.2
2017-Jun-23 05:57N 01°17' E 104°12'  
2017-Jun-16 00:12N 30°43' E 123°20'313.6
2017-Jun-16 00:00N 30°45' E 123°20'813.6
2017-Jun-15 23:26N 30°53' E 123°20'613.1
2017-Jun-15 22:57N 30°59' E 123°21'612.7
2017-Jun-15 22:30N 31°05' E 123°20'1712.5
2017-Jun-15 21:10N 31°22' E 123°20'212.3
2017-Jun-15 20:59N 31°24' E 123°20'711.8
2017-Jun-15 20:25N 31°30' E 123°20'511.6
2017-Jun-15 19:57N 31°36' E 123°20'511.7
2017-Jun-15 19:29N 31°41' E 123°20'611.4
2017-Jun-15 18:57N 31°47' E 123°20'611.4
2017-Jun-15 18:24N 31°54' E 123°20'511.5
2017-Jun-15 17:59N 31°59' E 123°19'611.8
2017-Jun-15 17:29N 32°04' E 123°19'611.9
2017-Jun-15 17:00N 32°10' E 123°19'612.4
2017-Jun-15 16:29N 32°17' E 123°19'612.7
2017-Jun-15 16:00N 32°23' E 123°19'713.1
2017-Jun-15 15:30N 32°29' E 123°20'813.4
2017-Jun-15 14:53N 32°38' E 123°20'513.5
2017-Jun-15 14:30N 32°43' E 123°20'1413.8
2017-Jun-15 13:30N 32°57' E 123°20'1513.9
2017-Jun-15 12:26N 33°11' E 123°20'613.7
2017-Jun-15 12:00N 33°17' E 123°20'1513.4
2017-Jun-15 10:55N 33°32' E 123°20'513.1
2017-Jun-15 10:30N 33°37' E 123°20'712.8
2017-Jun-15 09:59N 33°44' E 123°20'612.5
2017-Jun-15 09:30N 33°50' E 123°20'712.4
2017-Jun-15 08:58N 33°57' E 123°21'1812.4
2017-Jun-15 07:30N 34°15' E 123°20'6612.9
2017-Jun-15 02:24N 35°20' E 123°20'9012.6
2017-Jun-14 19:16N 36°50' E 123°14'713.6
2017-Jun-14 18:48N 36°56' E 123°14'1013.8
2017-Jun-14 18:06N 37°06' E 123°12'114.1
2017-Jun-14 18:00N 37°07' E 123°12'714.0
2017-Jun-14 17:29N 37°15' E 123°11'6312.0
2017-Jun-14 12:16N 37°57' E 122°13'312.7
2017-Jun-14 11:59N 37°59' E 122°09'912.8
2017-Jun-14 11:18N 38°04' E 121°60'413.0
2017-Jun-14 11:00N 38°05' E 121°55'613.0
2017-Jun-14 10:30N 38°08' E 121°48'612.9
2017-Jun-14 10:00N 38°11' E 121°41'712.8
2017-Jun-14 09:29N 38°14' E 121°33'612.8
2017-Jun-14 09:00N 38°18' E 121°27'712.5
2017-Jun-14 08:26N 38°21' E 121°19'512.3
2017-Jun-14 08:00N 38°24' E 121°13'611.9
2017-Jun-14 07:30N 38°27' E 121°07'611.9
2017-Jun-14 07:00N 38°30' E 121°00'911.9
2017-Jun-14 06:13N 38°34' E 120°49'312.0
2017-Jun-14 05:59N 38°35' E 120°46'611.9
2017-Jun-14 05:30N 38°36' E 120°39'612.2
2017-Jun-14 05:00N 38°37' E 120°31'  
Track history (hours):
 
Tides and Currents Weather Stations Pressure Air Temp Water Temp Dewpoint Dewpoint Depression Visibility Wind Speed Wind Dir Waves Ship Positions

Crest Voyager

Last reported at 2017-Jun-24 04:59 UTC. Time now 2017-Jun-24 05:28 UTC.
Position N 01°23' E 103°12'.

Length 292 m; draft 9.7 m.

Type: Cargo ship. MMSI: 374835000.

Date/timePositionNaut miles runAvg speedWind from/ knotsBaromVisibWave heightAir tempDewpointWater temp
2017-Jun-24 04:59N 01°23' E 103°12'711.8
2017-Jun-24 04:21N 01°19' E 103°18'411.2
2017-Jun-24 03:58N 01°17' E 103°22'510.7
2017-Jun-24 03:30N 01°14' E 103°26'511.1
2017-Jun-24 03:00N 01°13' E 103°31'611.6
2017-Jun-24 02:30N 01°11' E 103°37'611.5
2017-Jun-24 02:00N 01°09' E 103°42'510.9
2017-Jun-24 01:30N 01°10' E 103°48'713.4
2017-Jun-24 01:01N 01°13' E 103°54'612.0
2017-Jun-24 00:30N 01°16' E 103°59'611.4
2017-Jun-24 00:00N 01°17' E 104°05'2 4.2
2017-Jun-23 23:29N 01°19' E 104°05'0 0.2
2017-Jun-23 22:49N 01°19' E 104°05'0 0.0
2017-Jun-23 22:19N 01°19' E 104°05'0 0.1
2017-Jun-23 21:58N 01°19' E 104°05'0 0.0
2017-Jun-23 21:04N 01°19' E 104°05'0 0.1
2017-Jun-23 20:46N 01°19' E 104°05'0 0.1
2017-Jun-23 20:10N 01°19' E 104°05'0 0.0
2017-Jun-23 19:52N 01°19' E 104°05'0 0.2
2017-Jun-23 19:22N 01°19' E 104°05'0 0.1
2017-Jun-23 18:58N 01°19' E 104°05'0 0.0
2017-Jun-23 18:25N 01°19' E 104°05'0 0.0
2017-Jun-23 17:55N 01°19' E 104°05'0 0.0
2017-Jun-23 17:25N 01°19' E 104°05'0 0.0
2017-Jun-23 16:52N 01°19' E 104°05'0 0.1
2017-Jun-23 16:28N 01°19' E 104°05'0 0.0
2017-Jun-23 15:55N 01°19' E 104°05'0 0.1
2017-Jun-23 15:25N 01°19' E 104°05'0 0.1
2017-Jun-23 14:46N 01°19' E 104°05'0 0.1
2017-Jun-23 13:55N 01°19' E 104°05'0 0.3
2017-Jun-23 13:25N 01°19' E 104°04'0 0.1
2017-Jun-23 12:49N 01°19' E 104°04'0 0.1
2017-Jun-23 11:55N 01°19' E 104°04'0 0.1
2017-Jun-23 11:25N 01°19' E 104°04'0 0.1
2017-Jun-23 10:55N 01°19' E 104°04'0 0.3
2017-Jun-23 10:28N 01°19' E 104°05'0 0.2
2017-Jun-23 09:58N 01°19' E 104°05'0 0.0
2017-Jun-23 09:28N 01°19' E 104°05'0 0.1
2017-Jun-23 08:58N 01°19' E 104°05'0 0.2
2017-Jun-23 08:16N 01°19' E 104°05'0 0.1
2017-Jun-23 07:46N 01°19' E 104°05'0 0.2
2017-Jun-23 07:29N 01°19' E 104°05'1 1.2
2017-Jun-23 07:00N 01°19' E 104°05'4 7.3
2017-Jun-23 06:26N 01°17' E 104°09'3 6.2
2017-Jun-23 05:57N 01°17' E 104°12'  
2017-Jun-16 00:12N 30°43' E 123°20'313.6
2017-Jun-16 00:00N 30°45' E 123°20'813.6
2017-Jun-15 23:26N 30°53' E 123°20'613.1
2017-Jun-15 22:57N 30°59' E 123°21'612.7
2017-Jun-15 22:30N 31°05' E 123°20'1712.5
2017-Jun-15 21:10N 31°22' E 123°20'212.3
2017-Jun-15 20:59N 31°24' E 123°20'711.8
2017-Jun-15 20:25N 31°30' E 123°20'511.6
2017-Jun-15 19:57N 31°36' E 123°20'511.7
2017-Jun-15 19:29N 31°41' E 123°20'611.4
2017-Jun-15 18:57N 31°47' E 123°20'611.4
2017-Jun-15 18:24N 31°54' E 123°20'511.5
2017-Jun-15 17:59N 31°59' E 123°19'611.8
2017-Jun-15 17:29N 32°04' E 123°19'611.9
2017-Jun-15 17:00N 32°10' E 123°19'612.4
2017-Jun-15 16:29N 32°17' E 123°19'612.7
2017-Jun-15 16:00N 32°23' E 123°19'713.1
2017-Jun-15 15:30N 32°29' E 123°20'813.4
2017-Jun-15 14:53N 32°38' E 123°20'513.5
2017-Jun-15 14:30N 32°43' E 123°20'1413.8
2017-Jun-15 13:30N 32°57' E 123°20'1513.9
2017-Jun-15 12:26N 33°11' E 123°20'613.7
2017-Jun-15 12:00N 33°17' E 123°20'1513.4
2017-Jun-15 10:55N 33°32' E 123°20'513.1
2017-Jun-15 10:30N 33°37' E 123°20'712.8
2017-Jun-15 09:59N 33°44' E 123°20'612.5
2017-Jun-15 09:30N 33°50' E 123°20'712.4
2017-Jun-15 08:58N 33°57' E 123°21'1812.4
2017-Jun-15 07:30N 34°15' E 123°20'6612.9
2017-Jun-15 02:24N 35°20' E 123°20'9012.6
2017-Jun-14 19:16N 36°50' E 123°14'713.6
2017-Jun-14 18:48N 36°56' E 123°14'1013.8
2017-Jun-14 18:06N 37°06' E 123°12'114.1
2017-Jun-14 18:00N 37°07' E 123°12'714.0
2017-Jun-14 17:29N 37°15' E 123°11'6312.0
2017-Jun-14 12:16N 37°57' E 122°13'312.7
2017-Jun-14 11:59N 37°59' E 122°09'912.8
2017-Jun-14 11:18N 38°04' E 121°60'413.0
2017-Jun-14 11:00N 38°05' E 121°55'613.0
2017-Jun-14 10:30N 38°08' E 121°48'612.9
2017-Jun-14 10:00N 38°11' E 121°41'712.8
2017-Jun-14 09:29N 38°14' E 121°33'612.8
2017-Jun-14 09:00N 38°18' E 121°27'712.5
2017-Jun-14 08:26N 38°21' E 121°19'512.3
2017-Jun-14 08:00N 38°24' E 121°13'611.9
2017-Jun-14 07:30N 38°27' E 121°07'611.9
2017-Jun-14 07:00N 38°30' E 121°00'911.9
2017-Jun-14 06:13N 38°34' E 120°49'312.0
2017-Jun-14 05:59N 38°35' E 120°46'611.9
2017-Jun-14 05:30N 38°36' E 120°39'612.2
2017-Jun-14 05:00N 38°37' E 120°31'  

Dump ship's entire track history